Time;durP1;ratioP1;P1;durP2;ratioP2;P2;SDS_P1;SDS_P2;PMS_P1;PMS_P2;Temp;Humidity;BMP_temperature;BMP_pressure;BME280_temperature;BME280_humidity;BME280_pressure;Samples;Min_cycle;Max_cycle;Signal;HPM_P1;HPM_P2
2023/03/05 00:01:05;;;;;;;8.65;2.55;;;;;;;;;;5055658;28;20200;-69
2023/03/05 00:03:32;;;;;;;6.60;2.60;;;;;;;;;;5056636;28;20194;-69
2023/03/05 00:06:01;;;;;;;6.50;2.90;;;;;;;;;;5056338;28;20233;-69
2023/03/05 00:08:28;;;;;;;4.88;2.83;;;;;;;;;;5056433;28;20203;-69
2023/03/05 00:10:58;;;;;;;12.05;3.10;;;;;;;;;;5056641;28;20738;-69
2023/03/05 00:13:25;;;;;;;6.57;2.50;;;;;;;;;;5056160;28;20209;-69
2023/03/05 00:15:52;;;;;;;12.68;3.60;;;;;;;;;;5055916;28;20228;-69
2023/03/05 00:18:20;;;;;;;16.08;3.22;;;;;;;;;;5056370;28;20194;-69
2023/03/05 00:20:47;;;;;;;4.93;2.50;;;;;;;;;;5056187;28;20193;-69
2023/03/05 00:23:16;;;;;;;5.70;2.55;;;;;;;;;;5056279;28;20202;-69
2023/03/05 00:25:44;;;;;;;10.15;4.03;;;;;;;;;;5056085;28;20202;-69
2023/03/05 00:28:12;;;;;;;5.43;3.25;;;;;;;;;;5055649;28;20622;-69
2023/03/05 00:30:39;;;;;;;12.73;2.85;;;;;;;;;;5056104;28;20216;-68
2023/03/05 00:33:06;;;;;;;10.73;3.85;;;;;;;;;;5055538;28;20223;-69
2023/03/05 00:35:39;;;;;;;8.18;3.42;;;;;;;;;;5055523;28;20219;-69
2023/03/05 00:38:06;;;;;;;14.65;3.35;;;;;;;;;;5055505;28;20194;-69
2023/03/05 00:40:37;;;;;;;8.60;2.90;;;;;;;;;;5055828;28;20187;-69
2023/03/05 00:43:05;;;;;;;7.85;3.25;;;;;;;;;;5055435;28;20181;-69
2023/03/05 00:45:32;;;;;;;10.13;3.50;;;;;;;;;;5055888;28;20234;-69
2023/03/05 00:48:00;;;;;;;9.80;4.18;;;;;;;;;;5055656;28;20193;-69
2023/03/05 00:50:27;;;;;;;9.00;3.83;;;;;;;;;;5055702;28;20194;-69
2023/03/05 00:52:54;;;;;;;9.65;3.30;;;;;;;;;;5055222;28;20642;-68
2023/03/05 00:55:22;;;;;;;4.30;3.13;;;;;;;;;;5056202;28;20214;-68
2023/03/05 00:57:50;;;;;;;8.77;3.03;;;;;;;;;;5055085;28;20197;-68
2023/03/05 01:00:17;;;;;;;13.23;3.42;;;;;;;;;;5055054;28;20199;-69
2023/03/05 01:02:45;;;;;;;7.85;2.63;;;;;;;;;;5055455;28;20195;-69
2023/03/05 01:05:13;;;;;;;8.05;3.65;;;;;;;;;;5055349;28;20199;-68
2023/03/05 01:07:40;;;;;;;10.35;2.80;;;;;;;;;;5055777;28;20232;-68
2023/03/05 01:10:08;;;;;;;9.68;4.40;;;;;;;;;;5055628;28;20194;-68
2023/03/05 01:12:36;;;;;;;5.93;3.22;;;;;;;;;;5053645;28;20197;-69
2023/03/05 01:15:05;;;;;;;14.90;3.83;;;;;;;;;;5054613;28;20222;-69
2023/03/05 01:17:32;;;;;;;11.77;3.00;;;;;;;;;;5054789;28;20221;-69
2023/03/05 01:19:59;;;;;;;7.50;3.45;;;;;;;;;;5054741;28;20203;-68
2023/03/05 01:22:26;;;;;;;5.95;2.72;;;;;;;;;;5054972;28;20194;-69
2023/03/05 01:24:54;;;;;;;12.98;3.13;;;;;;;;;;5054875;28;20205;-69
2023/03/05 01:27:21;;;;;;;7.07;3.63;;;;;;;;;;5054882;28;20198;-69
2023/03/05 01:29:48;;;;;;;8.10;3.65;;;;;;;;;;5054981;28;20214;-68
2023/03/05 01:32:17;;;;;;;8.27;2.70;;;;;;;;;;5054462;28;20280;-68
2023/03/05 01:34:44;;;;;;;7.88;3.20;;;;;;;;;;5054530;28;20208;-69
2023/03/05 01:37:11;;;;;;;8.05;3.35;;;;;;;;;;5054330;28;20208;-69
2023/03/05 01:39:38;;;;;;;12.45;3.00;;;;;;;;;;5054350;28;20555;-68
2023/03/05 01:42:06;;;;;;;7.03;2.80;;;;;;;;;;5054837;28;20545;-69
2023/03/05 01:44:33;;;;;;;7.28;2.90;;;;;;;;;;5054911;28;20190;-69
2023/03/05 01:47:01;;;;;;;12.40;3.75;;;;;;;;;;5054395;28;20201;-69
2023/03/05 01:49:31;;;;;;;14.65;3.63;;;;;;;;;;5054132;28;20197;-69
2023/03/05 01:52:01;;;;;;;14.05;3.75;;;;;;;;;;5054545;28;20188;-68
2023/03/05 01:54:30;;;;;;;5.15;3.45;;;;;;;;;;5054425;28;20197;-69
2023/03/05 01:56:59;;;;;;;9.85;3.45;;;;;;;;;;5054296;28;20627;-69
2023/03/05 01:59:27;;;;;;;15.63;3.30;;;;;;;;;;5054098;28;20197;-69
2023/03/05 02:01:56;;;;;;;10.98;3.30;;;;;;;;;;5053921;28;20203;-68
2023/03/05 02:04:26;;;;;;;10.93;3.13;;;;;;;;;;5053676;28;20198;-68
2023/03/05 02:06:54;;;;;;;7.07;2.63;;;;;;;;;;5054654;28;20229;-68
2023/03/05 02:09:22;;;;;;;8.07;3.58;;;;;;;;;;5053995;28;20199;-69
2023/03/05 02:11:50;;;;;;;6.72;3.72;;;;;;;;;;5054011;28;20246;-68
2023/03/05 02:14:17;;;;;;;7.50;3.20;;;;;;;;;;5054067;28;20191;-68
2023/03/05 02:16:44;;;;;;;10.70;3.30;;;;;;;;;;5054146;28;20225;-70
2023/03/05 02:19:12;;;;;;;3.28;2.97;;;;;;;;;;5054044;28;20194;-68
2023/03/05 02:21:41;;;;;;;7.13;3.10;;;;;;;;;;5053772;28;20198;-69
2023/03/05 02:24:11;;;;;;;6.30;2.60;;;;;;;;;;5053776;28;20193;-69
2023/03/05 02:26:38;;;;;;;9.45;3.05;;;;;;;;;;5054028;28;20199;-68
2023/03/05 02:29:08;;;;;;;5.22;2.75;;;;;;;;;;5053908;28;20198;-68
2023/03/05 02:31:37;;;;;;;4.82;2.80;;;;;;;;;;5053339;28;20197;-69
2023/03/05 02:34:05;;;;;;;7.53;2.55;;;;;;;;;;5053746;28;20256;-69
2023/03/05 02:36:32;;;;;;;13.77;4.30;;;;;;;;;;5053415;28;20228;-69
2023/03/05 02:39:01;;;;;;;5.75;2.65;;;;;;;;;;5053836;28;20196;-69
2023/03/05 02:41:28;;;;;;;6.75;3.80;;;;;;;;;;5053600;28;20196;-69
2023/03/05 02:43:55;;;;;;;6.57;2.33;;;;;;;;;;5053627;28;20198;-69
2023/03/05 02:46:23;;;;;;;8.90;3.30;;;;;;;;;;5054086;28;20309;-68
2023/03/05 02:48:50;;;;;;;7.60;3.50;;;;;;;;;;5052969;28;20204;-68
2023/03/05 02:51:17;;;;;;;5.22;2.58;;;;;;;;;;5053420;28;20278;-69
2023/03/05 02:53:44;;;;;;;6.53;2.58;;;;;;;;;;5053695;28;20587;-70
2023/03/05 02:56:13;;;;;;;5.72;2.55;;;;;;;;;;5053793;28;20260;-68
2023/03/05 02:58:40;;;;;;;4.90;2.67;;;;;;;;;;5053272;28;20196;-68
2023/03/05 03:01:08;;;;;;;10.88;3.00;;;;;;;;;;5052839;28;20709;-68
2023/03/05 03:03:36;;;;;;;5.53;2.90;;;;;;;;;;5052872;28;20232;-69
2023/03/05 03:06:03;;;;;;;8.35;3.85;;;;;;;;;;5052622;28;20229;-69
2023/03/05 03:08:30;;;;;;;6.18;2.28;;;;;;;;;;5053042;28;20645;-69
2023/03/05 03:10:57;;;;;;;4.55;2.90;;;;;;;;;;5052771;28;20643;-69
2023/03/05 03:13:26;;;;;;;6.45;2.75;;;;;;;;;;5052905;28;20216;-69
2023/03/05 03:16:01;;;;;;;3.53;2.70;;;;;;;;;;5052564;28;20224;-68
2023/03/05 03:18:29;;;;;;;10.27;3.00;;;;;;;;;;5053414;28;20188;-69
2023/03/05 03:20:56;;;;;;;4.55;2.70;;;;;;;;;;5052881;28;20194;-69
2023/03/05 03:23:23;;;;;;;8.93;2.35;;;;;;;;;;5052909;28;20201;-69
2023/03/05 03:25:50;;;;;;;3.25;2.42;;;;;;;;;;5052732;28;20201;-68
2023/03/05 03:28:17;;;;;;;7.25;3.00;;;;;;;;;;5053124;28;20198;-69
2023/03/05 03:30:46;;;;;;;7.13;2.40;;;;;;;;;;5052457;28;20570;-69
2023/03/05 03:33:13;;;;;;;7.65;3.60;;;;;;;;;;5052856;28;20189;-68
2023/03/05 03:35:40;;;;;;;7.68;2.65;;;;;;;;;;5057456;28;20217;-68
2023/03/05 03:38:07;;;;;;;5.47;2.55;;;;;;;;;;5059472;28;20194;-68
2023/03/05 03:40:36;;;;;;;15.57;2.88;;;;;;;;;;5059299;28;20191;-68
2023/03/05 03:43:03;;;;;;;6.50;3.60;;;;;;;;;;5059432;28;20204;-69
2023/03/05 03:45:30;;;;;;;9.02;3.58;;;;;;;;;;5059946;28;20243;-68
2023/03/05 03:47:59;;;;;;;4.45;2.97;;;;;;;;;;5059735;28;20196;-68
2023/03/05 03:50:26;;;;;;;5.63;2.97;;;;;;;;;;5058940;28;20198;-69
2023/03/05 03:52:53;;;;;;;6.85;2.63;;;;;;;;;;5058981;28;20216;-68
2023/03/05 03:55:20;;;;;;;5.05;2.70;;;;;;;;;;5059025;28;20200;-68
2023/03/05 03:57:47;;;;;;;6.28;3.85;;;;;;;;;;5058931;28;20197;-68
2023/03/05 04:00:15;;;;;;;10.25;4.00;;;;;;;;;;5059224;28;20197;-68
2023/03/05 04:02:43;;;;;;;8.82;2.70;;;;;;;;;;5058913;28;20240;-69
2023/03/05 04:05:11;;;;;;;7.90;3.72;;;;;;;;;;5059389;28;20196;-69
2023/03/05 04:07:38;;;;;;;6.97;4.03;;;;;;;;;;5060218;28;20222;-68
2023/03/05 04:10:06;;;;;;;8.70;3.33;;;;;;;;;;5059161;28;20200;-68
2023/03/05 04:12:33;;;;;;;14.63;3.53;;;;;;;;;;5059453;28;20547;-68
2023/03/05 04:15:00;;;;;;;9.23;3.60;;;;;;;;;;5059497;28;20194;-69
2023/03/05 04:17:28;;;;;;;12.55;4.32;;;;;;;;;;5058916;28;20217;-70
2023/03/05 04:19:55;;;;;;;7.75;3.20;;;;;;;;;;5059205;28;20188;-67
2023/03/05 04:22:23;;;;;;;6.90;3.15;;;;;;;;;;5059598;28;20194;-66
2023/03/05 04:24:51;;;;;;;13.60;3.47;;;;;;;;;;5059018;28;20291;-67
2023/03/05 04:27:18;;;;;;;4.43;3.00;;;;;;;;;;5058632;28;20214;-67
2023/03/05 04:29:45;;;;;;;4.88;3.60;;;;;;;;;;5059322;28;20192;-67
2023/03/05 04:32:12;;;;;;;5.45;3.47;;;;;;;;;;5058383;28;20212;-69
2023/03/05 04:34:39;;;;;;;7.22;3.40;;;;;;;;;;5056878;28;20207;-66
2023/03/05 04:37:07;;;;;;;10.48;3.60;;;;;;;;;;5056966;28;20232;-67
2023/03/05 04:39:35;;;;;;;3.58;3.28;;;;;;;;;;5057164;28;20208;-66
2023/03/05 04:42:03;;;;;;;7.70;3.35;;;;;;;;;;5057230;28;20597;-66
2023/03/05 04:44:30;;;;;;;10.10;3.17;;;;;;;;;;5057332;28;20196;-67
2023/03/05 04:46:57;;;;;;;9.45;4.15;;;;;;;;;;5055423;28;20200;-68
2023/03/05 04:49:24;;;;;;;8.00;3.67;;;;;;;;;;5053728;28;20218;-66
2023/03/05 04:51:51;;;;;;;11.80;3.78;;;;;;;;;;5054246;28;20193;-67
2023/03/05 04:54:18;;;;;;;11.32;3.55;;;;;;;;;;5054315;28;20193;-67
2023/03/05 04:56:47;;;;;;;4.47;2.60;;;;;;;;;;5054178;28;20223;-66
2023/03/05 04:59:14;;;;;;;5.75;2.92;;;;;;;;;;5054829;28;20189;-67
2023/03/05 05:01:42;;;;;;;7.55;3.47;;;;;;;;;;5054604;28;20192;-67
2023/03/05 05:04:09;;;;;;;5.75;3.42;;;;;;;;;;5054924;28;20194;-66
2023/03/05 05:06:36;;;;;;;6.55;3.42;;;;;;;;;;5054338;28;20228;-67
2023/03/05 05:09:04;;;;;;;5.25;3.83;;;;;;;;;;5054135;28;20196;-66
2023/03/05 05:11:31;;;;;;;6.65;2.72;;;;;;;;;;5054447;28;20197;-67
2023/03/05 05:13:59;;;;;;;5.32;3.05;;;;;;;;;;5054303;28;20214;-68
2023/03/05 05:16:27;;;;;;;6.10;3.00;;;;;;;;;;5054979;28;20214;-67
2023/03/05 05:18:54;;;;;;;4.57;2.65;;;;;;;;;;5054752;28;20275;-67
2023/03/05 05:21:21;;;;;;;9.55;3.45;;;;;;;;;;5054091;28;20189;-67
2023/03/05 05:23:48;;;;;;;3.30;2.70;;;;;;;;;;5054795;28;20200;-67
2023/03/05 05:26:15;;;;;;;7.95;2.53;;;;;;;;;;5054353;28;20198;-67
2023/03/05 05:28:43;;;;;;;7.03;3.50;;;;;;;;;;5054144;28;20655;-68
2023/03/05 05:31:13;;;;;;;5.97;2.90;;;;;;;;;;5053787;28;20191;-67
2023/03/05 05:33:40;;;;;;;7.63;2.85;;;;;;;;;;5054095;28;20192;-67
2023/03/05 05:36:09;;;;;;;5.05;3.22;;;;;;;;;;5054152;28;20289;-67
2023/03/05 05:38:36;;;;;;;6.40;2.65;;;;;;;;;;5054557;28;20190;-67
2023/03/05 05:41:05;;;;;;;12.60;3.15;;;;;;;;;;5054214;28;20608;-67
2023/03/05 05:43:32;;;;;;;5.25;2.80;;;;;;;;;;5053925;28;20197;-67
2023/03/05 05:46:00;;;;;;;7.22;3.30;;;;;;;;;;5054554;28;20202;-68
2023/03/05 05:48:29;;;;;;;4.43;2.65;;;;;;;;;;5053788;28;20192;-67
2023/03/05 05:50:57;;;;;;;6.88;2.40;;;;;;;;;;5053518;28;20201;-67
2023/03/05 05:53:24;;;;;;;11.25;3.50;;;;;;;;;;5053460;28;20206;-67
2023/03/05 05:55:51;;;;;;;5.43;3.20;;;;;;;;;;5053818;28;20212;-69
2023/03/05 05:58:19;;;;;;;4.97;3.40;;;;;;;;;;5053253;28;20225;-66
2023/03/05 06:00:46;;;;;;;6.90;3.53;;;;;;;;;;5053591;28;20198;-67
2023/03/05 06:03:13;;;;;;;6.88;2.97;;;;;;;;;;5053723;28;20190;-66
2023/03/05 06:05:42;;;;;;;7.68;3.40;;;;;;;;;;5054035;28;20191;-67
2023/03/05 06:08:10;;;;;;;8.73;3.78;;;;;;;;;;5054027;28;20188;-66
2023/03/05 06:10:37;;;;;;;13.57;4.05;;;;;;;;;;5052861;28;20614;-66
2023/03/05 06:13:04;;;;;;;7.75;4.47;;;;;;;;;;5053219;28;20239;-67
2023/03/05 06:15:31;;;;;;;11.20;3.42;;;;;;;;;;5054140;28;20295;-66
2023/03/05 06:17:59;;;;;;;6.47;2.80;;;;;;;;;;5053728;28;20215;-66
2023/03/05 06:20:27;;;;;;;4.57;2.67;;;;;;;;;;5053161;28;20228;-67
2023/03/05 06:22:55;;;;;;;6.65;3.53;;;;;;;;;;5053305;28;20199;-67
2023/03/05 06:25:23;;;;;;;8.48;2.80;;;;;;;;;;5053674;28;20193;-67
2023/03/05 06:27:50;;;;;;;7.07;3.15;;;;;;;;;;5053736;28;20199;-66
2023/03/05 06:30:17;;;;;;;8.77;3.33;;;;;;;;;;5052798;28;20204;-66
2023/03/05 06:32:44;;;;;;;12.15;3.20;;;;;;;;;;5053173;28;20197;-66
2023/03/05 06:35:12;;;;;;;4.82;3.38;;;;;;;;;;5053120;28;20200;-66
2023/03/05 06:37:40;;;;;;;3.70;3.20;;;;;;;;;;5053377;28;20739;-66
2023/03/05 06:40:10;;;;;;;7.40;3.25;;;;;;;;;;5053196;28;20196;-66
2023/03/05 06:42:37;;;;;;;7.43;3.45;;;;;;;;;;5052527;28;20193;-65
2023/03/05 06:45:04;;;;;;;7.55;2.90;;;;;;;;;;5053871;28;20198;-65
2023/03/05 06:47:32;;;;;;;8.18;3.90;;;;;;;;;;5052898;28;20200;-65
2023/03/05 06:49:59;;;;;;;5.65;3.67;;;;;;;;;;5052625;28;20194;-65
2023/03/05 06:52:26;;;;;;;10.07;3.63;;;;;;;;;;5052779;28;20201;-65
2023/03/05 06:54:54;;;;;;;6.90;3.53;;;;;;;;;;5052789;28;20202;-65
2023/03/05 06:57:23;;;;;;;7.38;3.50;;;;;;;;;;5052792;28;20221;-65
2023/03/05 06:59:51;;;;;;;8.57;3.78;;;;;;;;;;5053028;28;20207;-66
2023/03/05 07:02:18;;;;;;;9.27;3.60;;;;;;;;;;5052399;28;20193;-65
2023/03/05 07:04:46;;;;;;;6.18;3.70;;;;;;;;;;5052781;28;20198;-65
2023/03/05 07:07:13;;;;;;;7.60;3.25;;;;;;;;;;5052888;28;20230;-65
2023/03/05 07:09:42;;;;;;;8.25;3.50;;;;;;;;;;5051371;28;20196;-66
2023/03/05 07:12:10;;;;;;;9.13;3.05;;;;;;;;;;5052668;28;20201;-65
2023/03/05 07:14:39;;;;;;;4.75;3.45;;;;;;;;;;5052299;28;20232;-65
2023/03/05 07:17:07;;;;;;;6.03;3.13;;;;;;;;;;5052957;28;20267;-64
2023/03/05 07:19:34;;;;;;;4.20;3.20;;;;;;;;;;5052519;28;20190;-65
2023/03/05 07:22:01;;;;;;;3.85;3.08;;;;;;;;;;5052076;28;20209;-65
2023/03/05 07:24:28;;;;;;;7.75;4.00;;;;;;;;;;5052363;28;20711;-65
2023/03/05 07:26:56;;;;;;;4.93;3.53;;;;;;;;;;5052819;28;20247;-65
2023/03/05 07:29:23;;;;;;;8.48;3.80;;;;;;;;;;5052327;28;20229;-65
2023/03/05 07:31:52;;;;;;;4.43;3.50;;;;;;;;;;5051760;28;20200;-66
2023/03/05 07:34:19;;;;;;;6.63;3.67;;;;;;;;;;5051852;28;20216;-65
2023/03/05 07:36:46;;;;;;;5.32;3.00;;;;;;;;;;5052193;28;20274;-66
2023/03/05 07:39:13;;;;;;;10.77;4.00;;;;;;;;;;5052415;28;20644;-66
2023/03/05 07:41:41;;;;;;;8.07;3.55;;;;;;;;;;5051871;28;20216;-65
2023/03/05 07:44:08;;;;;;;10.43;3.70;;;;;;;;;;5051987;28;20302;-65
2023/03/05 07:46:35;;;;;;;6.05;4.13;;;;;;;;;;5052593;28;20275;-65
2023/03/05 07:49:03;;;;;;;6.30;3.65;;;;;;;;;;5052506;28;20195;-65
2023/03/05 07:51:31;;;;;;;6.10;3.92;;;;;;;;;;5051525;28;20683;-65
2023/03/05 07:53:59;;;;;;;9.07;3.40;;;;;;;;;;5051631;28;20284;-66
2023/03/05 07:56:27;;;;;;;6.43;3.40;;;;;;;;;;5051942;28;20203;-66
2023/03/05 07:58:55;;;;;;;5.10;3.05;;;;;;;;;;5052119;28;20220;-65
2023/03/05 08:01:22;;;;;;;6.53;2.80;;;;;;;;;;5051870;28;20283;-66
2023/03/05 08:03:49;;;;;;;4.68;2.80;;;;;;;;;;5051634;28;20288;-65
2023/03/05 08:06:18;;;;;;;4.07;2.80;;;;;;;;;;5052112;28;20690;-66
2023/03/05 08:08:45;;;;;;;2.97;2.67;;;;;;;;;;5052067;28;20276;-66
2023/03/05 08:11:13;;;;;;;6.47;2.75;;;;;;;;;;5051450;28;20541;-65
2023/03/05 08:13:40;;;;;;;3.88;2.67;;;;;;;;;;5051493;28;20194;-66
2023/03/05 08:16:08;;;;;;;6.43;2.65;;;;;;;;;;5052065;28;20198;-65
2023/03/05 08:18:36;;;;;;;6.50;2.53;;;;;;;;;;5052018;28;20221;-66
2023/03/05 08:21:03;;;;;;;3.45;3.25;;;;;;;;;;5053093;28;20192;-66
2023/03/05 08:23:33;;;;;;;2.83;2.05;;;;;;;;;;5055508;28;20201;-65
2023/03/05 08:26:00;;;;;;;3.88;2.42;;;;;;;;;;5055731;28;20229;-66
2023/03/05 08:28:28;;;;;;;3.05;2.35;;;;;;;;;;5055760;28;20220;-66
2023/03/05 08:30:55;;;;;;;4.28;2.42;;;;;;;;;;5055022;28;20329;-66
2023/03/05 08:33:22;;;;;;;3.70;2.30;;;;;;;;;;5054860;28;20275;-66
2023/03/05 08:35:49;;;;;;;6.15;3.10;;;;;;;;;;5055265;28;20197;-65
2023/03/05 08:38:16;;;;;;;3.08;2.60;;;;;;;;;;5055825;28;20213;-65
2023/03/05 08:40:45;;;;;;;5.50;3.08;;;;;;;;;;5055410;28;20208;-65
2023/03/05 08:43:12;;;;;;;7.30;2.97;;;;;;;;;;5055459;28;20198;-66
2023/03/05 08:45:39;;;;;;;5.45;3.20;;;;;;;;;;5055497;28;20202;-65
2023/03/05 08:48:07;;;;;;;6.10;2.55;;;;;;;;;;5056287;28;20203;-65
2023/03/05 08:50:36;;;;;;;7.30;3.03;;;;;;;;;;5055687;28;20276;-65
2023/03/05 08:53:03;;;;;;;4.05;3.10;;;;;;;;;;5055666;28;20189;-66
2023/03/05 08:55:30;;;;;;;3.47;2.90;;;;;;;;;;5055585;28;20198;-66
2023/03/05 08:57:59;;;;;;;7.50;3.38;;;;;;;;;;5055351;28;20214;-66
2023/03/05 09:00:26;;;;;;;3.90;3.15;;;;;;;;;;5055741;28;20196;-65
2023/03/05 09:02:53;;;;;;;5.13;3.28;;;;;;;;;;5055706;28;20546;-65
2023/03/05 09:05:21;;;;;;;3.38;3.08;;;;;;;;;;5055498;28;20198;-65
2023/03/05 09:07:48;;;;;;;4.40;2.70;;;;;;;;;;5055732;28;20232;-65
2023/03/05 09:10:17;;;;;;;5.65;3.65;;;;;;;;;;5055454;28;20191;-66
2023/03/05 09:12:44;;;;;;;5.60;3.25;;;;;;;;;;5053314;28;20636;-66
2023/03/05 09:15:13;;;;;;;5.30;3.20;;;;;;;;;;5053746;28;20289;-67
2023/03/05 09:17:41;;;;;;;5.22;2.70;;;;;;;;;;5054029;28;20307;-66
2023/03/05 09:20:09;;;;;;;3.03;2.72;;;;;;;;;;5054661;28;20195;-65
2023/03/05 09:22:36;;;;;;;4.30;3.00;;;;;;;;;;5054938;28;20195;-66
2023/03/05 09:25:03;;;;;;;5.15;2.78;;;;;;;;;;5054847;28;20190;-66
2023/03/05 09:27:33;;;;;;;5.07;3.30;;;;;;;;;;5054786;28;20228;-66
2023/03/05 09:30:00;;;;;;;3.45;3.08;;;;;;;;;;5054650;28;20276;-65
2023/03/05 09:32:29;;;;;;;5.05;3.10;;;;;;;;;;5053953;28;20226;-67
2023/03/05 09:34:56;;;;;;;5.00;4.43;;;;;;;;;;5053664;28;20189;-66
2023/03/05 09:37:23;;;;;;;6.43;3.45;;;;;;;;;;5053195;28;20297;-66
2023/03/05 09:39:50;;;;;;;4.75;3.20;;;;;;;;;;5054148;28;20190;-65
2023/03/05 09:42:30;;;;;;;7.53;5.55;;;;;;;;;;5054097;28;20193;-65
2023/03/05 09:45:03;;;;;;;3.78;3.38;;;;;;;;;;5054782;28;20194;-65
2023/03/05 09:47:42;;;;;;;8.10;3.65;;;;;;;;;;5055140;28;20191;-65
2023/03/05 09:50:13;;;;;;;4.93;3.75;;;;;;;;;;5054877;28;20212;-65
2023/03/05 09:52:43;;;;;;;4.18;3.35;;;;;;;;;;5054031;28;20222;-66
2023/03/05 09:55:14;;;;;;;6.88;3.47;;;;;;;;;;5052780;28;20712;-66
2023/03/05 09:57:43;;;;;;;5.50;3.10;;;;;;;;;;5053304;28;20208;-65
2023/03/05 10:00:17;;;;;;;5.05;2.75;;;;;;;;;;5053878;28;20190;-65
2023/03/05 10:02:50;;;;;;;6.28;2.25;;;;;;;;;;5054506;28;20586;-65
2023/03/05 10:05:20;;;;;;;5.32;2.97;;;;;;;;;;5054197;28;20183;-65
2023/03/05 10:07:54;;;;;;;4.57;2.80;;;;;;;;;;5054613;28;20236;-65
2023/03/05 10:10:23;;;;;;;4.45;2.55;;;;;;;;;;5054314;28;20505;-65
2023/03/05 10:12:52;;;;;;;6.00;5.15;;;;;;;;;;5053893;28;20598;-65
2023/03/05 10:15:23;;;;;;;3.10;2.50;;;;;;;;;;5052385;28;20646;-67
2023/03/05 10:18:02;;;;;;;4.05;2.47;;;;;;;;;;5052860;28;20217;-65
2023/03/05 10:20:42;;;;;;;2.55;2.35;;;;;;;;;;5053591;28;20190;-65
2023/03/05 10:23:20;;;;;;;2.63;2.00;;;;;;;;;;5054192;28;20181;-65
2023/03/05 10:25:53;;;;;;;3.80;3.13;;;;;;;;;;5053877;28;20186;-65
2023/03/05 10:28:22;;;;;;;7.25;2.33;;;;;;;;;;5053932;28;20205;-65
2023/03/05 10:31:05;;;;;;;8.20;2.50;;;;;;;;;;5053634;28;20545;-65
2023/03/05 10:33:38;;;;;;;4.60;2.58;;;;;;;;;;5053638;28;20181;-66
2023/03/05 10:36:26;;;;;;;4.30;2.25;;;;;;;;;;5051839;28;20642;-65
2023/03/05 10:39:16;;;;;;;4.88;2.38;;;;;;;;;;5045071;28;20215;-66
2023/03/05 10:41:51;;;;;;;4.47;1.83;;;;;;;;;;5053626;28;20182;-65
2023/03/05 10:44:22;;;;;;;1.33;1.23;;;;;;;;;;5053150;28;20280;-65
2023/03/05 10:46:50;;;;;;;5.28;1.52;;;;;;;;;;5052972;28;20231;-65
2023/03/05 10:49:20;;;;;;;4.50;1.40;;;;;;;;;;5053915;28;20283;-65
2023/03/05 10:51:50;;;;;;;1.30;1.17;;;;;;;;;;5053262;28;20236;-65
2023/03/05 10:54:23;;;;;;;1.98;1.65;;;;;;;;;;5052230;28;20654;-66
2023/03/05 10:56:50;;;;;;;3.28;1.63;;;;;;;;;;5052102;28;20249;-65
2023/03/05 10:59:17;;;;;;;1.90;1.40;;;;;;;;;;5052757;28;20308;-65
2023/03/05 11:02:02;;;;;;;2.17;1.52;;;;;;;;;;5052742;28;20210;-65
2023/03/05 11:04:34;;;;;;;1.60;1.50;;;;;;;;;;5053043;28;20655;-65
2023/03/05 11:07:06;;;;;;;1.80;1.70;;;;;;;;;;5053081;28;20228;-66
2023/03/05 11:09:33;;;;;;;3.05;1.60;;;;;;;;;;5053111;28;20186;-66
2023/03/05 11:12:07;;;;;;;1.60;1.35;;;;;;;;;;5052687;28;20757;-65
2023/03/05 11:14:36;;;;;;;1.98;1.73;;;;;;;;;;5051793;28;20204;-68
2023/03/05 11:17:04;;;;;;;2.95;1.55;;;;;;;;;;5051790;28;20204;-65
2023/03/05 11:19:33;;;;;;;2.63;1.55;;;;;;;;;;5052635;28;20218;-65
2023/03/05 11:22:09;;;;;;;4.40;1.85;;;;;;;;;;5053009;28;20190;-66
2023/03/05 11:24:37;;;;;;;7.22;1.80;;;;;;;;;;5052756;28;20185;-66
2023/03/05 11:27:22;;;;;;;2.20;1.50;;;;;;;;;;5052413;28;20605;-66
2023/03/05 11:29:49;;;;;;;3.92;1.80;;;;;;;;;;5052945;28;20203;-65
2023/03/05 11:32:20;;;;;;;4.50;2.28;;;;;;;;;;5052238;28;20639;-66
2023/03/05 11:34:49;;;;;;;5.05;1.70;;;;;;;;;;5051579;28;20204;-66
2023/03/05 11:37:22;;;;;;;2.33;1.50;;;;;;;;;;5051216;28;20195;-66
2023/03/05 11:39:49;;;;;;;2.80;1.95;;;;;;;;;;5052274;28;20212;-66
2023/03/05 11:42:23;;;;;;;1.50;1.40;;;;;;;;;;5052690;28;20300;-66
2023/03/05 11:44:51;;;;;;;3.85;2.30;;;;;;;;;;5053081;28;20226;-65
2023/03/05 11:47:24;;;;;;;4.60;1.95;;;;;;;;;;5052227;28;20197;-65
2023/03/05 11:49:54;;;;;;;1.88;1.58;;;;;;;;;;5052718;28;20253;-64
2023/03/05 11:52:24;;;;;;;3.80;1.63;;;;;;;;;;5052586;28;20179;-65
2023/03/05 11:54:54;;;;;;;4.32;1.85;;;;;;;;;;5051175;28;20647;-65
2023/03/05 11:57:24;;;;;;;1.63;1.42;;;;;;;;;;5055067;28;20194;-64
2023/03/05 11:59:52;;;;;;;2.83;1.80;;;;;;;;;;5055732;28;20229;-64
2023/03/05 12:02:20;;;;;;;3.38;1.88;;;;;;;;;;5056418;28;20212;-65
2023/03/05 12:04:48;;;;;;;2.17;1.60;;;;;;;;;;5056409;28;20286;-64
2023/03/05 12:07:18;;;;;;;6.47;2.33;;;;;;;;;;5056290;28;20222;-65
2023/03/05 12:09:48;;;;;;;7.13;1.95;;;;;;;;;;5056320;28;20192;-65
2023/03/05 12:12:23;;;;;;;5.80;2.10;;;;;;;;;;5056656;28;20191;-65
2023/03/05 12:14:52;;;;;;;2.85;2.28;;;;;;;;;;5055101;28;20635;-66
2023/03/05 12:17:22;;;;;;;1.73;1.63;;;;;;;;;;5055059;28;20547;-67
2023/03/05 12:19:53;;;;;;;2.13;1.50;;;;;;;;;;5055449;28;20218;-65
2023/03/05 12:22:23;;;;;;;2.45;1.55;;;;;;;;;;5056339;28;20616;-66
2023/03/05 12:24:50;;;;;;;5.88;1.75;;;;;;;;;;5056093;28;20182;-65
2023/03/05 12:27:32;;;;;;;2.70;1.52;;;;;;;;;;5055685;28;20194;-65
2023/03/05 12:30:00;;;;;;;1.70;1.60;;;;;;;;;;5056267;28;20186;-65
2023/03/05 12:32:59;;;;;;;5.50;1.60;;;;;;;;;;5055978;28;20217;-65
2023/03/05 12:35:30;;;;;;;2.47;2.00;;;;;;;;;;5054382;28;20198;-66
2023/03/05 12:38:01;;;;;;;1.75;1.50;;;;;;;;;;5054943;28;20571;-66
2023/03/05 12:40:28;;;;;;;1.85;1.35;;;;;;;;;;5055221;28;20213;-66
2023/03/05 12:42:57;;;;;;;2.88;1.40;;;;;;;;;;5055498;28;20217;-66
2023/03/05 12:45:31;;;;;;;1.65;1.30;;;;;;;;;;5055909;28;20218;-65
2023/03/05 12:48:17;;;;;;;1.65;1.50;;;;;;;;;;5055700;28;20185;-66
2023/03/05 12:50:51;;;;;;;2.33;1.15;;;;;;;;;;5055754;28;20199;-65
2023/03/05 12:53:20;;;;;;;2.13;1.60;;;;;;;;;;5055232;28;20198;-66
2023/03/05 12:55:54;;;;;;;2.78;1.77;;;;;;;;;;5053993;28;20198;-66
2023/03/05 12:58:26;;;;;;;3.65;1.70;;;;;;;;;;5053984;28;20267;-66
2023/03/05 13:00:58;;;;;;;2.45;1.50;;;;;;;;;;5055276;28;20555;-66
2023/03/05 13:03:29;;;;;;;6.10;1.65;;;;;;;;;;5055575;28;20236;-65
2023/03/05 13:05:57;;;;;;;2.78;1.30;;;;;;;;;;5055009;28;20215;-65
2023/03/05 13:08:27;;;;;;;3.72;1.42;;;;;;;;;;5053663;28;20640;-66
2023/03/05 13:10:55;;;;;;;3.15;1.30;;;;;;;;;;5054974;28;20202;-66
2023/03/05 13:13:24;;;;;;;1.67;1.20;;;;;;;;;;5054752;28;20278;-66
2023/03/05 13:15:51;;;;;;;4.03;1.65;;;;;;;;;;5053918;28;20225;-66
2023/03/05 13:18:21;;;;;;;3.08;1.67;;;;;;;;;;5054137;28;20191;-66
2023/03/05 13:20:55;;;;;;;2.00;1.30;;;;;;;;;;5054589;28;20187;-66
2023/03/05 13:23:23;;;;;;;2.17;1.40;;;;;;;;;;5055046;28;20685;-66
2023/03/05 13:25:59;;;;;;;1.40;1.30;;;;;;;;;;5054975;28;20190;-66
2023/03/05 13:28:27;;;;;;;1.77;1.40;;;;;;;;;;5054852;28;20182;-66
2023/03/05 13:30:55;;;;;;;1.98;1.70;;;;;;;;;;5054866;28;20282;-66
2023/03/05 13:33:25;;;;;;;1.60;1.38;;;;;;;;;;5055254;28;20298;-66
2023/03/05 13:35:52;;;;;;;2.00;1.58;;;;;;;;;;5053378;28;20200;-66
2023/03/05 13:38:23;;;;;;;5.00;1.38;;;;;;;;;;5053412;28;20224;-66
2023/03/05 13:41:03;;;;;;;1.40;1.30;;;;;;;;;;5054421;28;20217;-66
2023/03/05 13:43:30;;;;;;;2.45;1.63;;;;;;;;;;5054940;28;20194;-66
2023/03/05 13:45:58;;;;;;;3.08;1.40;;;;;;;;;;5054377;28;20223;-66
2023/03/05 13:48:26;;;;;;;3.25;1.55;;;;;;;;;;5054222;28;20293;-67
2023/03/05 13:50:57;;;;;;;2.20;1.45;;;;;;;;;;5055081;28;20201;-66
2023/03/05 13:53:26;;;;;;;3.08;1.48;;;;;;;;;;5054728;28;20538;-66
2023/03/05 13:55:54;;;;;;;2.15;1.30;;;;;;;;;;5054213;28;20655;-66
2023/03/05 13:58:40;;;;;;;2.42;1.30;;;;;;;;;;5054361;28;20197;-66
2023/03/05 14:01:13;;;;;;;2.72;1.70;;;;;;;;;;5054347;28;20199;-66
2023/03/05 14:03:41;;;;;;;1.83;1.20;;;;;;;;;;5054240;28;20216;-66
2023/03/05 14:06:10;;;;;;;1.40;1.30;;;;;;;;;;5054580;28;20223;-66
2023/03/05 14:08:38;;;;;;;2.10;1.30;;;;;;;;;;5054215;28;20291;-66
2023/03/05 14:11:15;;;;;;;1.77;1.35;;;;;;;;;;5054284;28;20298;-66
2023/03/05 14:13:42;;;;;;;2.25;1.20;;;;;;;;;;5054203;28;20197;-66
2023/03/05 14:16:13;;;;;;;2.45;1.48;;;;;;;;;;5054102;28;20285;-65
2023/03/05 14:18:40;;;;;;;2.25;1.50;;;;;;;;;;5053330;28;20183;-66
2023/03/05 14:21:08;;;;;;;1.95;1.40;;;;;;;;;;5053819;28;20532;-65
2023/03/05 14:23:38;;;;;;;3.08;1.70;;;;;;;;;;5054085;28;20230;-65
2023/03/05 14:26:18;;;;;;;1.30;1.20;;;;;;;;;;5054100;28;20191;-66
2023/03/05 14:28:51;;;;;;;1.90;1.25;;;;;;;;;;5053712;28;20600;-66
2023/03/05 14:31:19;;;;;;;2.45;1.25;;;;;;;;;;5054129;28;20191;-66
2023/03/05 14:33:46;;;;;;;1.50;1.40;;;;;;;;;;5071769;28;20190;-66
2023/03/05 14:36:14;;;;;;;2.20;1.30;;;;;;;;;;5073237;28;20206;-67
2023/03/05 14:38:42;;;;;;;1.23;1.20;;;;;;;;;;5073186;28;20442;-67
2023/03/05 14:41:20;;;;;;;3.05;1.45;;;;;;;;;;5073446;28;20306;-66
2023/03/05 14:43:47;;;;;;;3.25;1.40;;;;;;;;;;5073289;28;20563;-65
2023/03/05 14:46:14;;;;;;;1.58;1.27;;;;;;;;;;5073096;28;20239;-66
2023/03/05 14:48:43;;;;;;;2.78;1.55;;;;;;;;;;5073834;28;20190;-65
2023/03/05 14:51:11;;;;;;;2.28;2.05;;;;;;;;;;5073206;28;20198;-66